Time;durP1;ratioP1;P1;durP2;ratioP2;P2;SDS_P1;SDS_P2;PMS_P1;PMS_P2;Temp;Humidity;BMP_temperature;BMP_pressure;BME280_temperature;BME280_humidity;BME280_pressure;Samples;Min_cycle;Max_cycle;Signal;HPM_P1;HPM_P2
2024/01/06 00:01:15;;;;;;;8.30;3.70;;;;;;;1.33;80.63;95035.05;110592;1274;22114;-80
2024/01/06 00:03:44;;;;;;;9.90;3.50;;;;;;;1.31;80.48;95032.95;110612;1267;22137;-80
2024/01/06 00:06:15;;;;;;;9.60;4.70;;;;;;;1.30;80.54;95033.80;110609;1274;22125;-80
2024/01/06 00:08:43;;;;;;;13.80;6.30;;;;;;;1.24;80.25;95032.36;110633;1275;22203;-80
2024/01/06 00:11:12;;;;;;;22.90;9.80;;;;;;;1.13;79.89;95037.31;110642;1274;22156;-79
2024/01/06 00:13:40;;;;;;;20.20;9.30;;;;;;;1.07;80.27;95038.98;110606;1274;22118;-80
2024/01/06 00:16:08;;;;;;;15.40;7.70;;;;;;;1.01;80.28;95034.60;110622;1274;22663;-80
2024/01/06 00:18:36;;;;;;;16.20;7.10;;;;;;;0.95;80.44;95034.71;110603;1274;22123;-80
2024/01/06 00:21:05;;;;;;;11.30;5.50;;;;;;;0.90;80.19;95036.39;110630;1274;22168;-80
2024/01/06 00:23:33;;;;;;;8.80;3.50;;;;;;;0.82;80.33;95035.11;110613;1274;22196;-79
2024/01/06 00:26:02;;;;;;;7.10;3.10;;;;;;;0.74;80.28;95033.83;110592;1274;22252;-79
2024/01/06 00:28:30;;;;;;;7.10;3.70;;;;;;;0.72;80.45;95036.05;110595;1274;22132;-80
2024/01/06 00:30:58;;;;;;;7.70;3.70;;;;;;;0.69;80.79;95033.95;110634;1274;22122;-80
2024/01/06 00:33:26;;;;;;;7.60;3.70;;;;;;;0.64;81.12;95036.14;110591;1274;22189;-79
2024/01/06 00:35:55;;;;;;;17.60;7.50;;;;;;;0.62;82.10;95030.92;110585;1274;22126;-80
2024/01/06 00:38:23;;;;;;;9.90;5.40;;;;;;;0.63;82.16;95027.83;110606;1274;22116;-80
2024/01/06 00:40:51;;;;;;;7.00;3.00;;;;;;;0.63;81.78;95021.25;110610;1274;22241;-80
2024/01/06 00:43:20;;;;;;;7.50;4.40;;;;;;;0.61;82.09;95020.71;110568;1274;22102;-80
2024/01/06 00:45:48;;;;;;;2.30;1.40;;;;;;;0.63;82.16;95019.35;110584;1274;22732;-79
2024/01/06 00:48:17;;;;;;;5.20;2.80;;;;;;;0.67;82.20;95016.45;110618;1274;22902;-79
2024/01/06 00:50:45;;;;;;;11.40;5.80;;;;;;;0.74;82.59;95021.19;110602;1267;22214;-80
2024/01/06 00:53:13;;;;;;;11.60;4.60;;;;;;;0.77;82.78;95018.10;110585;1274;22226;-79
2024/01/06 00:55:42;;;;;;;15.00;6.50;;;;;;;0.78;82.39;95023.13;110582;1274;22238;-80
2024/01/06 00:58:10;;;;;;;7.70;4.10;;;;;;;0.81;82.45;95028.19;110594;1274;22104;-80
2024/01/06 01:00:38;;;;;;;5.30;2.10;;;;;;;0.82;82.15;95027.84;110610;1274;22990;-80
2024/01/06 01:03:07;;;;;;;2.70;1.30;;;;;;;0.78;82.05;95024.00;110578;1274;22216;-80
2024/01/06 01:05:35;;;;;;;2.20;1.30;;;;;;;0.80;82.34;95018.83;110590;1274;22824;-80
2024/01/06 01:08:04;;;;;;;2.80;1.40;;;;;;;0.83;82.46;95014.34;110618;1260;22156;-80
2024/01/06 01:10:32;;;;;;;3.10;1.50;;;;;;;0.85;82.45;95014.72;110608;1274;22103;-80
2024/01/06 01:13:00;;;;;;;4.30;1.30;;;;;;;0.81;81.84;95008.96;110655;1274;22360;-80
2024/01/06 01:15:28;;;;;;;7.20;2.20;;;;;;;0.82;82.37;95004.98;110599;1274;22833;-79
2024/01/06 01:17:56;;;;;;;4.40;2.00;;;;;;;0.76;82.47;95006.66;110586;1274;22119;-80
2024/01/06 01:20:25;;;;;;;2.50;1.30;;;;;;;0.78;83.03;94997.52;110610;1274;22163;-80
2024/01/06 01:22:53;;;;;;;6.80;1.90;;;;;;;0.83;82.71;94994.95;110575;1274;22306;-80
2024/01/06 01:25:21;;;;;;;2.20;1.10;;;;;;;0.88;82.98;94989.29;110616;1274;22184;-80
2024/01/06 01:27:49;;;;;;;2.00;1.20;;;;;;;0.95;82.98;94990.90;110585;1274;22207;-80
2024/01/06 01:30:17;;;;;;;2.40;1.00;;;;;;;1.00;82.69;94988.17;110533;1274;22117;-80
2024/01/06 01:32:46;;;;;;;3.50;1.40;;;;;;;0.99;82.20;94988.70;110633;1274;22124;-80
2024/01/06 01:35:14;;;;;;;2.30;1.40;;;;;;;0.94;81.98;94987.27;110597;1274;22271;-79
2024/01/06 01:37:42;;;;;;;16.60;8.00;;;;;;;0.98;82.46;94983.30;110610;1274;22271;-80
2024/01/06 01:40:11;;;;;;;13.40;6.20;;;;;;;1.02;82.18;94981.61;110591;1274;22124;-80
2024/01/06 01:42:41;;;;;;;5.50;2.30;;;;;;;0.97;81.88;94984.52;110581;1274;22122;-80
2024/01/06 01:45:10;;;;;;;5.90;3.40;;;;;;;1.00;82.19;94976.23;110647;1274;22104;-80
2024/01/06 01:47:41;;;;;;;11.10;4.70;;;;;;;0.98;82.28;94976.90;110600;1274;22143;-80
2024/01/06 01:50:10;;;;;;;3.50;2.20;;;;;;;1.01;82.28;94975.71;110589;1274;22818;-80
2024/01/06 01:52:40;;;;;;;8.00;3.40;;;;;;;1.01;82.30;94971.55;110616;1274;22111;-80
2024/01/06 01:55:09;;;;;;;23.40;11.40;;;;;;;0.98;82.41;94976.04;110587;1274;22121;-80
2024/01/06 01:57:38;;;;;;;18.60;9.70;;;;;;;1.01;82.46;94970.35;110487;1274;22180;-80
2024/01/06 02:00:07;;;;;;;14.50;7.10;;;;;;;1.03;82.47;94964.48;110602;1274;22193;-80
2024/01/06 02:02:38;;;;;;;27.50;11.10;;;;;;;1.02;82.32;94972.08;110610;1274;22257;-80
2024/01/06 02:05:07;;;;;;;42.10;17.20;;;;;;;0.95;82.06;94960.42;110623;1274;22214;-80
2024/01/06 02:07:35;;;;;;;46.10;18.60;;;;;;;0.88;82.11;94962.79;110610;1274;22133;-80
2024/01/06 02:10:04;;;;;;;44.00;17.00;;;;;;;0.83;81.85;94960.34;110629;1274;22113;-80
2024/01/06 02:12:32;;;;;;;33.00;13.40;;;;;;;0.80;82.15;94949.05;110586;1274;22951;-80
2024/01/06 02:15:00;;;;;;;10.90;6.10;;;;;;;0.76;81.94;94950.73;110584;1274;22130;-80
2024/01/06 02:17:28;;;;;;;12.20;6.00;;;;;;;0.74;82.45;94946.41;110589;1274;22347;-79
2024/01/06 02:19:57;;;;;;;6.60;3.90;;;;;;;0.72;82.60;94943.79;110634;1274;22128;-80
2024/01/06 02:22:25;;;;;;;16.10;6.90;;;;;;;0.66;83.86;94938.20;110624;1274;22714;-80
2024/01/06 02:24:53;;;;;;;10.40;5.20;;;;;;;0.65;83.35;94935.77;110602;1274;22168;-80
2024/01/06 02:27:22;;;;;;;11.40;6.40;;;;;;;0.69;83.50;94934.59;110615;1260;22167;-80
2024/01/06 02:29:50;;;;;;;9.00;4.20;;;;;;;0.71;83.34;94930.98;110592;1274;22792;-80
2024/01/06 02:32:18;;;;;;;11.60;5.10;;;;;;;0.76;83.32;94935.17;110615;1274;22158;-80
2024/01/06 02:34:46;;;;;;;13.30;6.40;;;;;;;0.78;84.03;94931.20;110598;1274;22166;-80
2024/01/06 02:37:14;;;;;;;15.10;6.30;;;;;;;0.84;83.77;94929.35;110557;1274;22151;-79
2024/01/06 02:39:42;;;;;;;20.80;9.40;;;;;;;0.88;83.86;94933.19;110619;1274;23002;-80
2024/01/06 02:42:10;;;;;;;18.90;9.40;;;;;;;0.92;84.20;94923.34;110593;1274;22118;-79
2024/01/06 02:44:39;;;;;;;19.30;8.90;;;;;;;0.97;83.97;94928.06;110605;1274;22115;-80
2024/01/06 02:47:07;;;;;;;20.30;9.30;;;;;;;1.01;84.07;94915.63;110603;1274;22325;-80
2024/01/06 02:49:35;;;;;;;15.90;7.70;;;;;;;1.10;83.87;94920.18;110622;1274;22125;-80
2024/01/06 02:52:04;;;;;;;14.60;6.50;;;;;;;1.15;83.93;94915.36;110620;1274;22135;-80
2024/01/06 02:54:32;;;;;;;12.50;6.10;;;;;;;1.20;83.80;94922.68;110593;1274;22775;-80
2024/01/06 02:57:00;;;;;;;11.00;6.40;;;;;;;1.28;83.65;94913.55;110614;1274;22131;-80
2024/01/06 02:59:29;;;;;;;11.80;7.00;;;;;;;1.33;83.37;94911.67;110592;1274;22346;-79
2024/01/06 03:01:57;;;;;;;23.60;10.70;;;;;;;1.40;83.47;94905.65;110566;1274;22327;-80
2024/01/06 03:04:25;;;;;;;29.50;12.20;;;;;;;1.45;83.13;94906.89;110607;1274;22188;-79
2024/01/06 03:06:53;;;;;;;28.70;12.20;;;;;;;1.41;83.07;94898.55;110631;1274;22140;-79
2024/01/06 03:09:22;;;;;;;29.90;14.50;;;;;;;1.40;82.72;94897.52;110563;1260;23111;-80
2024/01/06 03:11:50;;;;;;;26.80;13.00;;;;;;;1.38;83.04;94898.02;110621;1274;22939;-80
2024/01/06 03:14:18;;;;;;;27.90;12.30;;;;;;;1.42;82.95;94895.77;110567;1274;22581;-79
2024/01/06 03:16:46;;;;;;;15.80;9.30;;;;;;;1.40;82.88;94900.96;110557;1274;22123;-79
2024/01/06 03:19:14;;;;;;;16.40;8.60;;;;;;;1.37;82.69;94896.79;110610;1274;22132;-79
2024/01/06 03:21:43;;;;;;;10.50;4.90;;;;;;;1.38;82.48;94893.68;110623;1274;22108;-79
2024/01/06 03:24:11;;;;;;;8.20;4.50;;;;;;;1.35;82.41;94892.10;110614;1274;22098;-80
2024/01/06 03:26:39;;;;;;;8.80;4.40;;;;;;;1.33;82.76;94895.73;110594;1274;22425;-79
2024/01/06 03:29:08;;;;;;;12.10;6.20;;;;;;;1.33;83.27;94892.44;110640;1274;22160;-79
2024/01/06 03:31:36;;;;;;;21.40;12.30;;;;;;;1.30;83.22;94897.27;110622;1274;22190;-79
2024/01/06 03:34:04;;;;;;;11.80;6.70;;;;;;;1.28;83.33;94893.28;110617;1267;22295;-79
2024/01/06 03:36:32;;;;;;;13.60;5.70;;;;;;;1.26;83.42;94894.13;110517;1274;22115;-79
2024/01/06 03:39:00;;;;;;;12.60;6.40;;;;;;;1.20;83.66;94897.05;110583;1274;22111;-79
2024/01/06 03:41:29;;;;;;;16.70;8.90;;;;;;;1.17;83.55;94896.16;110614;1274;22116;-79
2024/01/06 03:43:57;;;;;;;7.80;4.70;;;;;;;1.18;83.33;94897.54;110602;1274;22393;-79
2024/01/06 03:46:25;;;;;;;9.50;3.90;;;;;;;1.18;83.80;94891.84;110507;1274;22188;-78
2024/01/06 03:48:53;;;;;;;7.00;4.20;;;;;;;1.22;83.42;94890.81;110613;1274;22134;-79
2024/01/06 03:51:22;;;;;;;7.40;3.70;;;;;;;1.28;83.37;94900.02;110629;1274;22187;-80
2024/01/06 03:53:50;;;;;;;7.20;4.50;;;;;;;1.33;83.68;94894.34;110577;1274;22275;-79
2024/01/06 03:56:18;;;;;;;8.90;5.10;;;;;;;1.39;83.43;94895.59;110557;1274;22224;-79
2024/01/06 03:58:46;;;;;;;11.30;5.80;;;;;;;1.43;83.42;94896.48;110615;1274;22117;-79
2024/01/06 04:01:15;;;;;;;12.50;7.40;;;;;;;1.51;83.31;94898.08;110567;1274;22261;-80
2024/01/06 04:03:43;;;;;;;39.90;22.90;;;;;;;1.53;82.98;94896.02;110617;1274;22148;-79
2024/01/06 04:06:11;;;;;;;30.10;17.40;;;;;;;1.55;82.78;94897.23;110588;1274;23074;-79
2024/01/06 04:08:41;;;;;;;8.60;4.30;;;;;;;1.56;82.78;94892.04;110629;1274;22904;-80
2024/01/06 04:11:09;;;;;;;8.90;5.70;;;;;;;1.61;82.96;94882.00;110550;1274;22166;-79
2024/01/06 04:13:37;;;;;;;23.80;12.70;;;;;;;1.66;83.09;94880.47;110594;1274;22202;-80
2024/01/06 04:16:06;;;;;;;41.60;19.70;;;;;;;1.69;83.18;94881.87;110600;1267;22122;-80
2024/01/06 04:18:34;;;;;;;38.90;17.90;;;;;;;1.79;83.21;94875.83;110597;1274;22132;-80
2024/01/06 04:21:02;;;;;;;35.00;16.10;;;;;;;1.87;82.89;94871.34;110487;1274;22308;-79
2024/01/06 04:23:31;;;;;;;21.00;9.20;;;;;;;1.96;82.94;94869.13;110613;1274;22137;-80
2024/01/06 04:25:59;;;;;;;58.10;25.80;;;;;;;1.99;82.42;94875.90;110639;1274;22115;-79
2024/01/06 04:28:27;;;;;;;44.00;20.50;;;;;;;2.00;82.34;94870.17;110618;1274;22279;-79
2024/01/06 04:30:55;;;;;;;26.70;12.60;;;;;;;2.02;82.23;94872.77;110623;1274;22888;-79
2024/01/06 04:33:24;;;;;;;27.10;13.40;;;;;;;2.04;82.42;94870.36;110478;1274;22280;-79
2024/01/06 04:35:53;;;;;;;24.10;11.10;;;;;;;2.00;81.78;94875.03;110606;1274;22255;-80
2024/01/06 04:38:21;;;;;;;24.80;11.70;;;;;;;1.94;82.12;94871.71;110547;1274;22194;-80
2024/01/06 04:40:49;;;;;;;34.00;18.20;;;;;;;1.92;82.03;94867.38;110609;1274;23058;-80
2024/01/06 04:43:17;;;;;;;32.20;17.00;;;;;;;1.87;81.73;94867.70;110608;1274;22099;-80
2024/01/06 04:45:45;;;;;;;32.50;17.40;;;;;;;1.79;81.84;94861.96;110547;1274;22384;-79
2024/01/06 04:48:14;;;;;;;27.40;15.10;;;;;;;1.72;82.29;94858.13;110623;1274;22436;-79
2024/01/06 04:50:42;;;;;;;9.70;6.00;;;;;;;1.66;82.03;94860.88;110622;1274;22120;-80
2024/01/06 04:53:10;;;;;;;6.90;4.20;;;;;;;1.60;82.90;94866.22;110591;1274;22120;-79
2024/01/06 04:55:39;;;;;;;6.90;3.30;;;;;;;1.58;83.00;94859.10;110597;1274;22128;-79
2024/01/06 04:58:07;;;;;;;8.60;6.30;;;;;;;1.58;83.24;94860.48;110597;1274;23007;-79
2024/01/06 05:00:36;;;;;;;15.60;8.60;;;;;;;1.60;83.47;94863.28;110602;1274;22966;-79
2024/01/06 05:03:04;;;;;;;6.70;3.50;;;;;;;1.63;83.41;94871.27;110622;1274;22204;-79
2024/01/06 05:05:32;;;;;;;6.00;2.60;;;;;;;1.64;83.77;94871.27;110567;1274;22126;-80
2024/01/06 05:08:01;;;;;;;7.40;4.40;;;;;;;1.60;85.20;94872.98;110563;1274;22166;-79
2024/01/06 05:10:29;;;;;;;8.50;4.50;;;;;;;1.62;84.37;94876.64;110554;1274;22898;-80
2024/01/06 05:12:58;;;;;;;11.90;6.40;;;;;;;1.60;85.18;94874.36;110603;1274;22798;-79
2024/01/06 05:15:26;;;;;;;16.20;9.00;;;;;;;1.60;84.62;94874.20;110603;1263;22100;-79
2024/01/06 05:17:55;;;;;;;23.50;12.70;;;;;;;1.60;84.72;94869.17;110593;1274;22136;-79
2024/01/06 05:20:23;;;;;;;27.10;14.90;;;;;;;1.59;85.05;94873.66;110534;1274;23021;-79
2024/01/06 05:22:51;;;;;;;27.00;17.20;;;;;;;1.60;84.70;94873.50;110609;1274;22117;-79
2024/01/06 05:25:19;;;;;;;38.10;21.60;;;;;;;1.60;84.76;94869.17;110594;1274;22893;-79
2024/01/06 05:27:48;;;;;;;41.40;24.20;;;;;;;1.62;84.60;94868.65;110621;1272;22152;-79
2024/01/06 05:30:16;;;;;;;46.00;27.90;;;;;;;1.62;85.10;94873.86;110611;1274;22862;-79
2024/01/06 05:32:45;;;;;;;12.20;8.50;;;;;;;1.62;84.62;94871.95;110633;1260;22195;-79
2024/01/06 05:35:13;;;;;;;28.30;17.20;;;;;;;1.69;84.79;94868.17;110600;1274;22907;-79
2024/01/06 05:37:41;;;;;;;47.40;27.10;;;;;;;1.69;85.56;94870.95;110631;1274;22622;-79
2024/01/06 05:40:09;;;;;;;63.20;29.80;;;;;;;1.67;85.61;94865.91;110612;1274;22117;-79
2024/01/06 05:42:38;;;;;;;59.40;27.60;;;;;;;1.68;85.48;94873.72;110174;1274;563599;-79
2024/01/06 05:45:06;;;;;;;47.30;23.70;;;;;;;1.71;85.12;94873.54;110590;1274;22124;-80
2024/01/06 05:47:35;;;;;;;40.30;19.90;;;;;;;1.78;85.25;94876.17;110613;1274;22191;-79
2024/01/06 05:50:03;;;;;;;50.50;25.30;;;;;;;1.85;85.58;94877.07;110608;1274;22163;-79
2024/01/06 05:52:31;;;;;;;45.90;22.70;;;;;;;1.91;85.58;94870.15;110597;1274;22159;-79
2024/01/06 05:54:59;;;;;;;43.00;21.70;;;;;;;1.98;85.38;94867.73;110626;1274;22330;-79
2024/01/06 05:57:28;;;;;;;74.50;40.20;;;;;;;2.02;85.18;94869.14;110588;1274;22087;-80
2024/01/06 05:59:56;;;;;;;66.80;32.60;;;;;;;2.07;85.24;94873.14;110563;1274;22263;-80
2024/01/06 06:02:24;;;;;;;61.90;29.40;;;;;;;2.14;85.14;94867.79;110581;1274;22186;-79
2024/01/06 06:04:53;;;;;;;52.50;27.00;;;;;;;2.22;85.22;94866.39;110584;1274;22131;-79
2024/01/06 06:07:21;;;;;;;48.20;22.50;;;;;;;2.26;85.12;94868.48;110565;1274;23009;-79
2024/01/06 06:09:49;;;;;;;46.50;19.40;;;;;;;2.31;84.81;94866.25;110548;1274;22130;-79
2024/01/06 06:12:17;;;;;;;53.10;21.40;;;;;;;2.35;84.62;94867.81;110636;1274;22128;-80
2024/01/06 06:14:45;;;;;;;120.30;50.80;;;;;;;2.40;84.57;94874.59;110626;1274;22129;-80
2024/01/06 06:17:14;;;;;;;93.90;43.50;;;;;;;2.41;84.24;94870.25;110619;1274;22189;-80
2024/01/06 06:19:42;;;;;;;81.80;37.60;;;;;;;2.47;84.74;94875.80;110617;1274;22972;-80
2024/01/06 06:22:10;;;;;;;73.40;32.50;;;;;;;2.53;84.44;94877.36;110602;1274;22099;-79
2024/01/06 06:24:38;;;;;;;88.00;40.70;;;;;;;2.48;84.23;94873.90;110588;1274;23082;-80
2024/01/06 06:27:09;;;;;;;91.40;42.80;;;;;;;2.48;84.26;94874.77;110578;1274;22114;-79
2024/01/06 06:29:38;;;;;;;63.90;31.20;;;;;;;2.56;84.68;94882.05;110619;1274;22815;-80
2024/01/06 06:32:06;;;;;;;38.50;21.10;;;;;;;2.65;84.72;94881.56;110628;1274;22243;-79
2024/01/06 06:34:34;;;;;;;46.50;25.40;;;;;;;2.72;84.61;94880.87;110597;1274;22127;-80
2024/01/06 06:37:03;;;;;;;52.70;29.70;;;;;;;2.74;83.98;94877.55;110604;1274;22995;-79
2024/01/06 06:39:35;;;;;;;56.80;30.10;;;;;;;2.79;83.97;94885.37;110604;1274;22143;-80
2024/01/06 06:42:04;;;;;;;55.20;32.80;;;;;;;2.79;83.81;94878.42;110516;1274;22149;-80
2024/01/06 06:44:32;;;;;;;37.70;20.50;;;;;;;2.80;84.11;94867.66;110554;1274;22834;-80
2024/01/06 06:47:01;;;;;;;40.70;24.30;;;;;;;2.84;84.54;94857.06;110630;1274;22442;-80
2024/01/06 06:49:29;;;;;;;46.20;23.90;;;;;;;2.85;83.90;94863.83;110612;1274;22465;-80
2024/01/06 06:51:57;;;;;;;48.80;25.60;;;;;;;2.81;83.83;94862.61;110593;1274;22109;-80
2024/01/06 06:54:25;;;;;;;51.70;29.20;;;;;;;2.75;83.46;94871.48;110614;1263;22129;-80
2024/01/06 06:56:53;;;;;;;84.60;51.40;;;;;;;2.71;83.54;94870.62;110600;1274;22121;-80
2024/01/06 06:59:22;;;;;;;49.40;27.90;;;;;;;2.68;84.03;94866.10;110604;1274;22911;-80
2024/01/06 07:01:50;;;;;;;36.00;22.10;;;;;;;2.66;84.76;94854.47;110540;1274;22138;-80
2024/01/06 07:04:18;;;;;;;316.50;123.10;;;;;;;2.68;84.49;94855.86;110556;1274;22388;-80
2024/01/06 07:06:46;;;;;;;130.10;74.40;;;;;;;2.66;84.82;94865.23;110611;1274;22130;-80
2024/01/06 07:09:15;;;;;;;93.70;51.10;;;;;;;2.62;85.01;94860.89;110616;1274;22101;-80
2024/01/06 07:11:43;;;;;;;103.60;56.70;;;;;;;2.60;84.93;94861.58;110614;1274;22128;-80
2024/01/06 07:14:11;;;;;;;49.80;28.90;;;;;;;2.60;84.84;94868.35;110617;1274;22132;-80
2024/01/06 07:16:39;;;;;;;31.30;17.80;;;;;;;2.55;84.83;94858.98;110572;1274;22139;-80
2024/01/06 07:19:08;;;;;;;30.80;20.90;;;;;;;2.49;85.57;94854.63;110603;1274;22907;-79
2024/01/06 07:21:37;;;;;;;31.00;17.00;;;;;;;2.47;85.32;94861.75;110609;1274;22141;-80
2024/01/06 07:24:05;;;;;;;17.90;10.10;;;;;;;2.48;84.94;94861.57;110625;1274;22822;-80
2024/01/06 07:26:33;;;;;;;15.50;8.00;;;;;;;2.47;84.91;94865.91;110610;1274;22227;-80
2024/01/06 07:29:01;;;;;;;14.00;7.30;;;;;;;2.48;84.85;94872.17;110590;1274;22191;-80
2024/01/06 07:31:30;;;;;;;11.50;6.40;;;;;;;2.49;84.73;94875.98;110625;1274;22181;-80
2024/01/06 07:33:58;;;;;;;12.40;7.70;;;;;;;2.49;84.55;94871.46;110615;1274;22820;-79
2024/01/06 07:36:26;;;;;;;21.00;13.00;;;;;;;2.49;84.31;94869.20;110618;1274;22177;-80
2024/01/06 07:38:55;;;;;;;53.00;38.10;;;;;;;2.51;84.42;94870.43;110604;1274;22840;-80
2024/01/06 07:41:23;;;;;;;56.60;44.00;;;;;;;2.54;84.83;94862.27;110594;1274;22877;-80
2024/01/06 07:43:51;;;;;;;25.90;19.40;;;;;;;2.59;84.75;94861.41;110622;1274;22145;-77
2024/01/06 07:46:19;;;;;;;23.10;15.80;;;;;;;2.60;84.44;94856.89;110607;1274;22259;-77
2024/01/06 07:48:47;;;;;;;25.00;13.90;;;;;;;2.55;84.44;94858.80;110606;1274;22491;-76
2024/01/06 07:51:17;;;;;;;27.60;14.60;;;;;;;2.48;84.46;94867.48;110627;1274;22869;-77
2024/01/06 07:53:45;;;;;;;27.30;14.20;;;;;;;2.50;84.40;94873.38;110612;1274;22167;-76
2024/01/06 07:56:13;;;;;;;39.50;17.90;;;;;;;2.52;84.61;94871.47;110557;1274;22157;-77
2024/01/06 07:58:41;;;;;;;24.50;12.60;;;;;;;2.54;84.42;94874.42;110606;1274;22102;-77
2024/01/06 08:01:10;;;;;;;14.40;8.20;;;;;;;2.61;84.40;94876.86;110614;1274;22162;-77
2024/01/06 08:03:38;;;;;;;10.10;6.70;;;;;;;2.70;84.36;94879.65;110587;1274;22110;-77
2024/01/06 08:06:06;;;;;;;9.20;5.60;;;;;;;2.74;84.05;94877.38;110558;1274;22947;-77
2024/01/06 08:08:35;;;;;;;12.40;7.60;;;;;;;2.73;83.96;94874.61;110595;1274;22123;-77
2024/01/06 08:11:03;;;;;;;9.50;6.90;;;;;;;2.75;83.68;94872.52;110598;1274;22182;-78
2024/01/06 08:13:31;;;;;;;9.80;6.60;;;;;;;2.77;83.90;94878.08;110620;1274;22140;-77
2024/01/06 08:16:00;;;;;;;14.90;8.80;;;;;;;2.75;84.21;94872.35;110645;1274;22156;-77
2024/01/06 08:18:28;;;;;;;10.10;6.20;;;;;;;2.73;83.69;94879.65;110573;1274;22250;-77
2024/01/06 08:20:56;;;;;;;9.70;6.10;;;;;;;2.74;83.82;94880.68;110619;1274;22112;-77
2024/01/06 08:23:25;;;;;;;13.80;6.00;;;;;;;2.76;83.73;94887.45;110609;1274;22131;-78
2024/01/06 08:25:54;;;;;;;11.90;6.60;;;;;;;2.75;83.85;94884.68;110576;1274;22259;-78
2024/01/06 08:28:23;;;;;;;10.80;6.40;;;;;;;2.78;84.20;94881.21;110584;1274;22145;-78
2024/01/06 08:30:51;;;;;;;11.50;7.00;;;;;;;2.87;84.36;94890.77;110611;1274;22125;-81
2024/01/06 08:33:20;;;;;;;10.60;6.30;;;;;;;2.96;84.45;94888.84;110601;1274;22278;-80
2024/01/06 08:35:48;;;;;;;10.10;6.00;;;;;;;3.06;84.42;94890.39;110593;1274;22283;-81
2024/01/06 08:38:16;;;;;;;8.80;5.50;;;;;;;3.04;83.84;94897.88;110587;1274;22884;-81
2024/01/06 08:40:47;;;;;;;10.50;6.20;;;;;;;2.95;83.39;94890.91;110603;1274;22190;-81
2024/01/06 08:43:16;;;;;;;10.70;6.60;;;;;;;2.92;83.48;94887.79;110629;1274;22849;-80
2024/01/06 08:45:45;;;;;;;13.40;8.20;;;;;;;2.89;84.20;94888.85;110611;1274;22112;-81
2024/01/06 08:48:15;;;;;;;12.80;7.60;;;;;;;2.87;84.26;94882.58;110587;1274;22297;-80
2024/01/06 08:50:45;;;;;;;30.10;17.20;;;;;;;2.89;84.64;94878.77;110596;1274;22109;-81
2024/01/06 08:53:13;;;;;;;24.00;15.10;;;;;;;2.89;84.57;94879.98;110604;1263;22298;-81
2024/01/06 08:55:42;;;;;;;25.00;14.80;;;;;;;2.88;84.24;94879.29;110612;1274;22775;-81
2024/01/06 08:58:14;;;;;;;14.90;11.20;;;;;;;2.87;84.44;94870.42;110570;1274;22778;-81
2024/01/06 09:00:42;;;;;;;17.50;12.80;;;;;;;2.86;84.39;94879.13;110626;1274;22858;-81
2024/01/06 09:03:12;;;;;;;25.30;16.40;;;;;;;2.87;84.08;94880.67;110596;1274;22936;-81
2024/01/06 09:05:40;;;;;;;12.90;9.50;;;;;;;2.86;84.35;94876.16;110608;1274;22772;-81
2024/01/06 09:08:09;;;;;;;13.90;8.90;;;;;;;2.89;84.26;94875.11;110618;1274;22167;-81
2024/01/06 09:10:37;;;;;;;13.50;8.40;;;;;;;2.93;84.10;94874.77;110590;1274;22448;-81
2024/01/06 09:13:05;;;;;;;14.40;9.30;;;;;;;2.95;84.31;94875.81;110610;1274;22116;-81
2024/01/06 09:15:33;;;;;;;19.20;10.10;;;;;;;2.96;84.59;94874.59;110580;1274;22192;-81
2024/01/06 09:18:02;;;;;;;20.60;11.90;;;;;;;2.98;84.83;94877.55;110616;1274;22311;-81
2024/01/06 09:20:31;;;;;;;16.70;10.40;;;;;;;2.98;85.08;94873.55;110530;1274;22129;-81
2024/01/06 09:22:59;;;;;;;15.40;10.40;;;;;;;3.04;84.89;94868.86;110600;1274;22133;-81
2024/01/06 09:25:27;;;;;;;13.60;9.80;;;;;;;3.10;85.01;94868.49;110628;1274;22231;-81
2024/01/06 09:27:55;;;;;;;20.10;12.60;;;;;;;3.18;85.10;94869.34;110624;1274;22617;-81
2024/01/06 09:30:24;;;;;;;21.00;11.90;;;;;;;3.27;84.82;94867.08;110598;1274;22115;-81
2024/01/06 09:32:53;;;;;;;20.30;12.00;;;;;;;3.29;84.39;94872.63;110566;1274;22131;-81
2024/01/06 09:35:21;;;;;;;15.80;10.70;;;;;;;3.32;84.48;94868.62;110595;1274;22131;-81
2024/01/06 09:37:49;;;;;;;21.50;11.50;;;;;;;3.39;84.44;94873.83;110610;1274;22123;-81
2024/01/06 09:40:23;;;;;;;28.60;15.80;;;;;;;3.46;84.31;94868.40;110613;1265;22898;-81
2024/01/06 09:42:52;;;;;;;29.80;17.90;;;;;;;3.52;84.12;94862.48;110542;1274;22125;-81
2024/01/06 09:45:20;;;;;;;39.50;22.50;;;;;;;3.53;83.84;94859.69;110595;1274;22091;-81
2024/01/06 09:47:50;;;;;;;31.20;20.00;;;;;;;3.61;84.28;94856.02;110588;1274;22200;-80
2024/01/06 09:50:20;;;;;;;20.50;12.70;;;;;;;3.69;84.20;94847.98;110547;1274;22232;-81
2024/01/06 09:53:03;;;;;;;19.00;11.50;;;;;;;3.79;84.41;94847.59;110615;1274;22756;-81
2024/01/06 09:55:31;;;;;;;;;;;;;;;3.90;83.69;94842.50;110597;1274;22304;-81
2024/01/06 09:58:00;;;;;;;14.90;9.30;;;;;;;3.92;83.20;94826.84;110611;1274;22344;-81
2024/01/06 10:00:31;;;;;;;14.10;8.60;;;;;;;3.93;82.93;94824.91;110608;1274;23002;-81
2024/01/06 10:02:59;;;;;;;22.00;13.20;;;;;;;3.91;82.65;94818.84;110590;1274;22111;-81
2024/01/06 10:05:27;;;;;;;14.30;8.80;;;;;;;3.86;82.57;94814.52;110573;1274;22959;-81
2024/01/06 10:07:55;;;;;;;13.10;8.40;;;;;;;3.86;82.12;94806.67;110625;1274;22123;-81
2024/01/06 10:10:24;;;;;;;13.50;8.80;;;;;;;3.87;82.30;94804.59;110618;1274;22109;-81
2024/01/06 10:12:54;;;;;;;11.90;7.90;;;;;;;3.89;82.54;94795.88;110605;1274;22782;-81
2024/01/06 10:15:23;;;;;;;9.40;7.50;;;;;;;3.89;82.85;94792.58;110557;1274;22985;-81
2024/01/06 10:17:53;;;;;;;15.10;9.70;;;;;;;3.89;82.55;94793.60;110622;1274;22984;-81
2024/01/06 10:20:22;;;;;;;18.90;10.90;;;;;;;3.92;82.60;94786.46;110577;1274;22311;-81
2024/01/06 10:22:50;;;;;;;14.20;8.70;;;;;;;3.94;82.37;94788.73;110627;1274;22121;-81
2024/01/06 10:25:19;;;;;;;15.10;9.10;;;;;;;3.89;81.87;94788.05;110623;1274;22109;-81
2024/01/06 10:27:47;;;;;;;15.10;9.60;;;;;;;3.86;82.55;94784.23;110567;1274;22130;-81
2024/01/06 10:30:18;;;;;;;16.60;9.80;;;;;;;3.83;83.38;94791.90;110639;1274;22165;-81
2024/01/06 10:32:46;;;;;;;14.10;9.40;;;;;;;3.81;83.29;94790.35;110669;1274;22127;-81
2024/01/06 10:35:15;;;;;;;12.60;8.00;;;;;;;3.84;83.40;94780.59;110617;1263;22390;-80
2024/01/06 10:37:44;;;;;;;12.60;7.10;;;;;;;3.93;83.55;94775.85;110616;1274;23115;-81
2024/01/06 10:40:16;;;;;;;11.90;7.30;;;;;;;4.00;83.46;94777.71;110632;1274;22130;-81
2024/01/06 10:42:45;;;;;;;13.80;7.80;;;;;;;3.99;83.53;94766.94;110558;1274;22276;-80
2024/01/06 10:45:14;;;;;;;11.40;7.60;;;;;;;3.97;83.75;94755.46;110634;1274;22208;-80
2024/01/06 10:47:43;;;;;;;12.80;8.80;;;;;;;4.01;83.59;94749.87;110633;1274;22108;-81
2024/01/06 10:50:14;;;;;;;15.40;10.50;;;;;;;4.04;83.99;94744.29;110503;1275;22142;-80
2024/01/06 10:52:43;;;;;;;18.50;11.40;;;;;;;4.10;84.09;94740.23;110599;1274;22115;-81
2024/01/06 10:55:16;;;;;;;18.50;12.00;;;;;;;4.12;84.18;94738.30;110630;1274;22167;-81
2024/01/06 10:57:45;;;;;;;15.10;9.40;;;;;;;4.16;83.66;94736.89;110592;1274;22142;-81
2024/01/06 11:00:14;;;;;;;13.80;9.50;;;;;;;4.21;83.51;94732.32;110600;1274;22242;-81
2024/01/06 11:02:43;;;;;;;20.50;12.50;;;;;;;4.26;83.52;94734.19;110594;1274;22338;-81
2024/01/06 11:05:13;;;;;;;17.80;10.10;;;;;;;4.33;83.38;94726.30;110585;1275;22154;-81
2024/01/06 11:07:42;;;;;;;13.50;8.10;;;;;;;4.42;83.27;94727.26;110574;1274;22106;-81
2024/01/06 11:10:18;;;;;;;10.40;7.80;;;;;;;4.52;83.34;94716.54;110614;1274;22467;-81
2024/01/06 11:13:06;;;;;;;12.80;8.00;;;;;;;4.62;82.49;94708.79;110621;1274;22081;-81
2024/01/06 11:15:46;;;;;;;11.00;7.70;;;;;;;4.67;82.51;94701.42;110632;1274;22183;-81
2024/01/06 11:18:35;;;;;;;12.20;7.00;;;;;;;4.69;81.55;94704.71;110573;1274;22446;-81
2024/01/06 11:21:21;;;;;;;16.40;9.30;;;;;;;4.72;81.61;94695.11;110623;1274;22136;-81
2024/01/06 11:24:07;;;;;;;15.40;9.60;;;;;;;4.71;80.95;94693.19;110601;1274;22187;-81
2024/01/06 11:26:39;;;;;;;11.80;7.00;;;;;;;4.64;80.80;94694.14;110587;1275;23085;-81
2024/01/06 11:29:07;;;;;;;16.60;10.50;;;;;;;4.59;80.94;94693.51;110593;1274;22131;-81
2024/01/06 11:31:37;;;;;;;15.60;9.90;;;;;;;4.63;81.37;94687.70;110611;1274;22885;-81